Richard Howard

Recruteur - Brentford
20 Nov 2027
Samedi
Processus

Personnalité

Adaptabilité (6) Ambition (6) Controverse (15) Loyauté (12) Pression (13) Professionnalisme (12) Sportivité (3) Tempérament (1)

Profil

Style d'entraînement Démocratique
Diplôme Continental A
Détermination 5
Gestion des joueurs 13
Motivation 5
Discipline 5
Satisfaction professionnelle
100%
Fatigue
0%
Rôle Recruteur
Salaire 49.2K p/s
Contrat 14.03.2028

Performance

Comportement Bon
Efficacité de l'entraînement
39%
Développement des joueurs
40%
Prévention des blessures
45%
Mise en place tactique
50%

Événements récents

A participé à une réunion de recrutement maintenant
A participé à une réunion de recrutement maintenant
A participé à une réunion de recrutement 7j
A participé à une réunion de recrutement 7j
A participé à une réunion de recrutement 7j
A participé à une réunion de recrutement 7j
A observé un match 7j
A observé un match 14j

Suivi en cours

136
Joueur Club Statut Capacité Confiance Observé Dernière observation Dernier vote
Andre Brooks Sheffield United Rapport prêt 131 / 131 72% 1 09.08.2027 -
Taiwo Awoniyi Coventry City Rapport prêt 139 / 135 72% 1 02.06.2027 -
Caleb Yirenkyi Coventry City Actif 136 / 143 40% 8 31.05.2027 -
Sindre Walle Egeli Nottingham Forest Actif 126 / 141 40% 3 31.05.2027 -
Emmanuel Ndubueze Shooting Stars Actif 90 / 92 40% 1 31.05.2027 -
Babis Kostoulas Aston Villa Actif 138 / 133 40% 2 30.05.2027 -
Oumar Camara Vitoria Guimaraes Actif 119 / 126 40% 3 30.05.2027 -
Sidiki Chérif Coventry City Actif 128 / 133 40% 3 29.05.2027 -
Christian Kofane Bayer Leverkusen Actif 139 / 138 40% 1 29.05.2027 -
Roger Fernandes Al-Ittihad Actif 131 / 141 40% 4 28.05.2027 -
Saïd El Mala Köln Actif 138 / 142 40% 3 28.05.2027 -
Gorka Gorosabel Real Sociedad Actif 110 / 113 40% 3 24.05.2027 -
Ben Gannon Doak Bournemouth Actif 137 / 144 40% 1 24.05.2027 -
Kirill Glebov CSKA Moscow Actif 134 / 133 40% 2 22.05.2027 -
Othmane Maamma Watford Actif 126 / 123 40% 7 22.05.2027 -
Oscar Schwartau Norwich City Actif 123 / 127 40% 4 22.05.2027 -
Daniel Murillo Atletico Venezuela Actif 73 / 83 40% 1 21.05.2027 -
Nicolás Azambuja Danubio Actif 116 / 135 40% 2 20.05.2027 -
Idris Ajiya Nasarawa United Actif 89 / 90 40% 1 20.05.2027 -
Louie Bradbury Manchester United Actif 80 / 91 40% 1 20.05.2027 -
Mfundo Vilakazi Kaizer Chiefs Actif 117 / 114 40% 2 19.05.2027 -
Ichem Ferrah Pisa Actif 104 / 113 40% 3 16.05.2027 -
Jeff Ekhator Juventus Actif 127 / 135 40% 4 16.05.2027 -
Stefanos Tzimas Brighton Actif 135 / 134 40% 2 16.05.2027 -
Don-Pedro Samuel Bayelsa United Actif 82 / 92 40% 1 14.05.2027 -
Edison Gruezo Guadalajara Actif 101 / 101 40% 1 14.05.2027 -
Nestory Irankunda Watford Actif 121 / 125 40% 2 12.05.2027 -
Sunday Aniebet Enyimba Actif 92 / 95 40% 1 12.05.2027 -
Ezekiel Kwame Alladoh Sheffield United Actif 120 / 118 40% 1 08.05.2027 -
Christos Mouzakitis Hull City Actif 135 / 135 40% 4 01.05.2027 -
Monty Batlhabane Polokwane City Actif 94 / 97 40% 1 28.04.2027 -
Ollie Scarles Chelsea Actif 137 / 130 40% 4 25.04.2027 -
Lander Astiazarán Real Sociedad Actif 104 / 113 40% 2 25.04.2027 -
Paris Brunner Monaco Actif 111 / 123 40% 3 25.04.2027 -
Mathis Jangeal Famalicao Actif 97 / 104 40% 4 23.04.2027 -
Bazoumana Touré Newcastle United Actif 145 / 144 40% 1 22.04.2027 -
Lautaro Gutiérrez Girona Actif 109 / 109 40% 1 18.04.2027 -
Cristian Peñate Barranquilla Actif 92 / 89 40% 1 18.04.2027 -
Chimobi Igwilo Rangers International Actif 82 / 94 40% 1 17.04.2027 -
Matheus Gonçalves Al-Ahli Actif 116 / 123 40% 3 15.04.2027 -
Joseph Abah Remo Stars Actif 89 / 95 40% 1 15.04.2027 -
George Brown Sheffield Wednesday Actif 101 / 109 40% 1 15.04.2027 -
Joel Orlando Real Sociedad Actif 113 / 120 40% 1 15.04.2027 -
Shea Lacey Millwall Actif 113 / 126 40% 2 12.04.2027 -
Ricardo Solbes Getafe Actif 92 / 106 40% 1 11.04.2027 -
Klaus Camara AC Ajaccio Actif 94 / 102 40% 1 11.04.2027 -
Naledi Hlongwane Heracles Actif 94 / 99 40% 1 10.04.2027 -
Hassan Beja AFC Leopards Actif 76 / 95 40% 1 10.04.2027 -
Shane Nti Brighton Actif 101 / 105 40% 1 07.04.2027 -
Borna Knezović Casarano Actif 106 / 111 40% 2 06.04.2027 -
Adama Goïta Remo Stars Actif 99 / 95 40% 1 06.04.2027 -
Mohamed El Amine Ramdaoui USM Alger Actif 105 / 106 40% 2 04.04.2027 -
Markus Jensen Nacional Actif 107 / 113 40% 1 04.04.2027 -
James Dornelly Peterborough United Actif 98 / 108 40% 2 02.04.2027 -
Milad Jahanbakhsh Rah Ahan Actif 105 / 99 40% 1 02.04.2027 -
Jorrel Hato Chelsea Actif 145 / 155 40% 3 31.03.2027 -
Luke Baartman Bidvest Wits Actif 92 / 109 40% 3 31.03.2027 -
Zack Nelson Walsall Actif 89 / 102 40% 1 31.03.2027 -
Risilanu Ismail El-Kanemi Warriors Actif 93 / 89 40% 1 31.03.2027 -
Sam Curtis Swindon Town Actif 109 / 110 40% 4 28.03.2027 -
Roberto Iliev Slavia Sofia Actif 104 / 100 40% 1 27.03.2027 -
Chineme Chinonso Ikorodu City Actif 94 / 94 40% 1 26.03.2027 -
Malick Fofana Sunderland Actif 144 / 148 40% 2 25.03.2027 -
Bradley Zwane SuperSport United Actif 96 / 106 40% 1 25.03.2027 -
Giuseppe Coppola Picerno Actif 91 / 98 40% 1 23.03.2027 -
Ronwen Khune Black Aces Actif 83 / 105 40% 2 19.03.2027 -
Ognjen Bondžulić Mladost Lucani Actif 95 / 104 40% 2 17.03.2027 -
Yuval Ranon Vitesse Actif 96 / 97 40% 1 15.03.2027 -
Nico O'Reilly Manchester City Actif 160 / 154 40% 5 13.03.2027 -
Edvin Austbø West Ham United Actif 125 / 135 40% 2 13.03.2027 -
Chemsdine Talbi Sunderland Actif 144 / 144 40% 2 13.03.2027 -
Benjamin Tsivanyo Aduana Stars Actif 89 / 85 40% 1 10.03.2027 -
Daniel Awuni Aduana Stars Actif 90 / 92 40% 1 07.03.2027 -
Jack Hinshelwood Brighton Actif 136 / 145 40% 2 04.03.2027 -
Ishmael Addo Heart of Lions Actif 85 / 90 40% 1 04.03.2027 -
Asanele Bonani Chippa United Actif 80 / 100 40% 1 02.03.2027 -
Simphiwe Selepe Orlando Pirates Actif 105 / 119 40% 1 12.01.2027 -
Kenan Yıldız Juventus Actif 160 / 169 40% 2 31.12.2026 -
Julio Enciso Ipswich Town Actif 149 / 142 40% 1 31.12.2026 Plus d'infos
Enzo Le Fée Sunderland Actif 146 / 140 40% 1 31.12.2026 -
Radek Vítek Middlesbrough Actif 140 / 143 40% 4 30.12.2026 -
Sol Brynn Middlesbrough Actif 125 / 128 40% 1 30.12.2026 -
Riquelme Thompson-Jones Shrewsbury Town Actif 105 / 118 40% 1 30.12.2026 -
João Simões Sporting CP Actif 126 / 139 40% 1 30.12.2026 -
George Wickens Lincoln City Actif 118 / 110 40% 5 28.12.2026 -
Diogo Costa Manchester United Actif 162 / 157 40% 5 27.12.2026 -
Josh Keeley Luton Town Actif 122 / 120 40% 2 27.12.2026 -
Zach Hemming Chesterfield Actif 111 / 108 40% 4 27.12.2026 -
Owen Lunt Crewe Alexandra Actif 97 / 97 40% 2 27.12.2026 -
Nathan Tinsdale Istra 1961 Actif 90 / 98 40% 1 27.12.2026 -
Marco Carnesecchi Torino Perdu 152 / 153 40% 5 25.12.2026 -
Đorđe Petrović Bournemouth Actif 142 / 152 40% 6 24.12.2026 -
Kostantis Tzolakis Hull City Actif 146 / 141 40% 5 24.12.2026 Observer
Filip Marschall Stevenage Actif 118 / 118 40% 4 24.12.2026 -
Taye Ashby-Hammond Cheltenham Town Actif 103 / 99 40% 2 23.12.2026 -
Roman Celentano FC Cincinnati Actif 111 / 122 40% 1 23.12.2026 -
Patrick Schulte Columbus Crew Actif 117 / 127 40% 3 22.12.2026 -
Carl Rushworth Coventry City Actif 133 / 136 40% 6 22.12.2026 Observer
Sifiso Mphela Ajax Cape Town Actif 80 / 92 40% 1 22.12.2026 -
Mohammed Wakaso Hasaacas Actif 94 / 100 40% 1 22.12.2026 -
Oleksandr Saputin Zorya Actif 118 / 125 40% 1 22.12.2026 -
Bryan Mbeumo Manchester United Actif 152 / 151 40% 1 22.12.2026 -
Adrien Truffert Bournemouth Actif 146 / 148 40% 1 22.12.2026 -
Gabriel Martinelli Arsenal Actif 162 / 159 40% 1 22.12.2026 -
Victor Ehibe Gazelle Garoua Actif 80 / 98 40% 1 19.12.2026 -
Mads Hermansen West Ham United Actif 138 / 133 40% 5 18.12.2026 -
Dylan Lawlor Cardiff City Actif 116 / 128 40% 1 17.12.2026 -
Morgan Rogers Chelsea Actif 162 / 162 40% 1 17.12.2026 -
Sandro Tonali Tottenham Actif 175 / 172 40% 1 17.12.2026 -
Riley Owen Wycombe Wanderers Actif 97 / 109 40% 1 15.12.2026 -
Edwin Asamoah Berekum Chelsea Actif 76 / 88 40% 1 11.12.2026 -
Williams Mahlangu SuperSport United Actif 123 / 105 40% 4 08.12.2026 -
Evidence Billiat Ajax Cape Town Actif 119 / 104 40% 4 08.12.2026 -
Bento Lokomotiv Moscow Actif 121 / 141 40% 1 08.12.2026 -
Grégoire Coudert Burnley Actif 121 / 132 40% 3 01.12.2026 -
Anatolii Trubin Tottenham Actif 153 / 150 40% 5 30.11.2026 -
Murphy Cooper Plymouth Argyle Actif 114 / 115 40% 5 30.11.2026 -
Senne Lammens Manchester United Actif 154 / 153 40% 3 27.11.2026 -
Mateusz Kochalski Qarabag Actif 138 / 131 40% 1 27.11.2026 -
Anthony Patterson Wrexham Actif 122 / 132 40% 4 26.11.2026 -
Maeson King Blackpool Actif 114 / 109 40% 1 25.11.2026 -
Kaick FC Dallas Actif 109 / 106 40% 1 25.11.2026 -
Lukas Jensen Millwall Actif 122 / 123 40% 2 24.11.2026 -
Michael Cooper Sheffield United Actif 130 / 132 40% 2 23.11.2026 -
Agustín Lastra Estudiantes Actif 103 / 112 40% 1 21.11.2026 -
Will Dennis Milton Keynes Dons Actif 98 / 104 40% 2 12.11.2026 -
James Trafford Leeds United Actif 139 / 143 40% 2 11.11.2026 -
Luka Gavran Toronto FC Actif 106 / 110 40% 2 07.11.2026 -
Mark Travers Everton Actif 144 / 142 40% 5 06.11.2026 -
Fran Vieites Exeter City Actif 119 / 123 40% 3 02.11.2026 -
Illan Meslier Arsenal Actif 125 / 127 40% 1 16.10.2026 -
Beau Reus Waasland-Beveren Actif 124 / 124 40% 1 13.10.2026 -
Novak Mićović LA Galaxy Actif 107 / 104 40% 2 09.10.2026 -
Chris Brady Bayer Leverkusen Actif 124 / 135 40% 1 08.10.2026 -
CJ dos Santos San Diego Football Club Actif 97 / 115 40% 1 08.09.2026 -
Luka Jovanović San Jose Earthquakes Actif 87 / 107 40% 1 31.08.2026 -